Time;durP1;ratioP1;P1;durP2;ratioP2;P2;SDS_P1;SDS_P2;PMS_P1;PMS_P2;Temp;Humidity;BMP_temperature;BMP_pressure;BME280_temperature;BME280_humidity;BME280_pressure;Samples;Min_cycle;Max_cycle;Signal;HPM_P1;HPM_P2
2024/03/14 00:06:54;;;;;;;6.33;3.27;;;;;;;7.35;71.13;100182.94;31828558;27;20051;-78
2024/03/14 00:21:56;;;;;;;5.03;2.87;;;;;;;7.59;73.67;100179.34;31827902;27;20047;-78
2024/03/14 00:37:01;;;;;;;4.63;2.90;;;;;;;7.01;75.62;100169.25;31838565;27;20479;-78
2024/03/14 00:52:03;;;;;;;8.97;2.90;;;;;;;7.58;73.75;100153.47;31841575;27;20043;-79
2024/03/14 01:07:05;;;;;;;8.73;2.70;;;;;;;7.64;71.71;100154.59;31821769;27;20054;-78
2024/03/14 01:22:07;;;;;;;5.53;2.00;;;;;;;7.47;72.45;100142.75;31844532;27;20050;-80
2024/03/14 01:37:12;;;;;;;4.63;2.50;;;;;;;6.44;85.99;100153.22;31807875;27;20525;-78
2024/03/14 01:52:14;;;;;;;6.87;2.37;;;;;;;6.49;87.18;100145.50;31832401;27;20061;-78
2024/03/14 02:07:23;;;;;;;6.57;3.33;;;;;;;6.43;90.68;100127.41;31816784;27;20291;-79
2024/03/14 02:22:27;;;;;;;7.83;2.97;;;;;;;6.75;96.76;100140.81;31823681;27;20054;-78
2024/03/14 02:37:32;;;;;;;6.60;3.37;;;;;;;6.44;98.57;100143.19;31811380;27;20495;-78
2024/03/14 02:52:34;;;;;;;5.60;3.43;;;;;;;6.11;100.00;100149.06;31802269;28;20062;-74
2024/03/14 03:07:37;;;;;;;20.73;4.27;;;;;;;6.17;100.00;100152.88;31758931;28;20135;-73
2024/03/14 03:38:00;;;;;;;17.80;4.10;;;;;;;6.34;100.00;100165.56;31829628;27;20077;-73
2024/03/14 03:53:02;;;;;;;9.20;3.70;;;;;;;6.68;100.00;100175.91;31830193;27;20134;-74
2024/03/14 04:08:05;;;;;;;7.03;3.30;;;;;;;6.35;100.00;100177.91;31821283;27;20055;-73
2024/03/14 04:23:07;;;;;;;7.80;3.13;;;;;;;6.96;100.00;100173.09;31797046;27;20503;-74
2024/03/14 04:38:09;;;;;;;6.93;3.10;;;;;;;6.60;100.00;100182.47;31813650;27;20069;-73
2024/03/14 04:53:11;;;;;;;9.17;3.87;;;;;;;6.64;100.00;100191.31;31822402;27;20050;-74
2024/03/14 05:08:14;;;;;;;8.47;3.57;;;;;;;6.99;100.00;100204.72;31825065;27;20047;-73
2024/03/14 05:23:16;;;;;;;6.67;3.80;;;;;;;6.76;100.00;100220.59;31821102;27;20282;-74
2024/03/14 05:38:18;;;;;;;8.73;2.90;;;;;;;7.23;100.00;100229.31;31777667;27;20138;-75
2024/03/14 05:53:20;;;;;;;13.77;4.40;;;;;;;7.88;100.00;100244.78;31830312;27;20067;-73
2024/03/14 06:08:22;;;;;;;8.80;3.60;;;;;;;7.24;100.00;100249.75;31823204;27;20047;-75
2024/03/14 06:23:24;;;;;;;11.13;2.97;;;;;;;7.39;100.00;100264.72;31789745;27;20053;-75
2024/03/14 06:38:26;;;;;;;11.40;3.47;;;;;;;8.14;97.44;100265.09;31795625;27;20406;-74
2024/03/14 06:53:27;;;;;;;8.50;3.43;;;;;;;8.41;95.78;100279.59;31767391;28;20066;-77
2024/03/14 07:08:29;;;;;;;4.33;2.73;;;;;;;8.29;92.64;100288.13;31779279;28;20051;-74
2024/03/14 07:23:33;;;;;;;9.90;3.67;;;;;;;8.98;88.11;100308.06;31833604;27;20513;-74
2024/03/14 07:38:35;;;;;;;9.50;4.00;;;;;;;9.39;82.17;100321.56;31819189;27;20048;-74
2024/03/14 07:53:39;;;;;;;7.77;3.33;;;;;;;9.73;77.15;100330.44;31823916;27;20621;-74
2024/03/14 08:08:41;;;;;;;6.77;3.77;;;;;;;9.96;75.52;100339.84;31832763;27;20138;-75
2024/03/14 08:23:48;;;;;;;11.27;4.83;;;;;;;9.71;75.55;100354.47;31814496;27;20586;-74
2024/03/14 08:38:51;;;;;;;7.77;4.33;;;;;;;10.47;71.41;100353.09;31821932;27;20058;-74
2024/03/14 08:54:08;;;;;;;17.80;4.73;;;;;;;10.64;69.67;100366.78;31811038;27;20043;-72
2024/03/14 09:09:23;;;;;;;12.67;5.10;;;;;;;10.76;71.10;100366.22;31787703;27;20051;-73
2024/03/14 09:24:25;;;;;;;8.60;4.37;;;;;;;11.02;69.83;100368.09;31803966;27;20048;-74
2024/03/14 09:39:35;;;;;;;6.67;4.43;;;;;;;10.93;70.44;100368.63;31819877;27;20066;-75
2024/03/14 09:54:38;;;;;;;8.30;4.97;;;;;;;10.76;71.98;100363.50;31836228;27;20142;-76
2024/03/14 10:09:40;;;;;;;12.23;5.43;;;;;;;10.98;72.82;100375.53;31810787;27;20051;-76
2024/03/14 10:24:45;;;;;;;7.17;4.40;;;;;;;11.33;71.72;100367.97;31819128;27;20051;-74
2024/03/14 10:39:54;;;;;;;16.67;5.17;;;;;;;11.18;71.61;100357.34;31805642;27;20420;-75
2024/03/14 10:54:56;;;;;;;12.37;4.87;;;;;;;10.98;88.34;100364.69;31833877;27;20046;-76
2024/03/14 11:09:58;;;;;;;7.47;4.70;;;;;;;11.41;100.00;100374.78;31828462;27;20054;-76
2024/03/14 11:25:02;;;;;;;12.07;5.23;;;;;;;11.18;100.00;100381.78;31835243;27;20138;-75
2024/03/14 11:40:14;;;;;;;10.97;5.27;;;;;;;10.17;100.00;100388.38;31828125;27;20054;-77
2024/03/14 11:55:18;;;;;;;13.70;4.80;;;;;;;10.62;100.00;100391.66;31820880;27;20402;-74
2024/03/14 12:10:24;;;;;;;14.73;5.10;;;;;;;10.46;100.00;100389.53;31825744;27;20120;-74
2024/03/14 12:25:26;;;;;;;;;;;;;;;10.65;100.00;100379.19;31808408;27;20047;-74
2024/03/14 12:40:30;;;;;;;8.40;5.17;;;;;;;10.58;100.00;100375.41;31820017;27;19927;-75
2024/03/14 12:55:33;;;;;;;11.13;6.23;;;;;;;10.82;100.00;100378.91;31801129;27;20135;-76
2024/03/14 13:10:35;;;;;;;14.07;7.07;;;;;;;10.40;100.00;100396.59;31814913;27;20055;-76
2024/03/14 13:25:38;;;;;;;12.57;7.23;;;;;;;10.49;100.00;100383.31;31803101;27;20134;-74
2024/03/14 13:40:40;;;;;;;17.70;9.73;;;;;;;9.48;100.00;100386.88;31799755;27;20090;-73
2024/03/14 13:55:43;;;;;;;16.77;9.00;;;;;;;9.46;100.00;100394.66;31809835;27;20040;-75
2024/03/14 14:10:47;;;;;;;12.30;7.57;;;;;;;9.97;100.00;100396.38;31818416;27;20146;-76
2024/03/14 14:25:50;;;;;;;13.50;7.90;;;;;;;9.96;100.00;100410.34;31795348;27;20055;-75
2024/03/14 14:41:01;;;;;;;26.30;10.35;;;;;;;9.65;100.00;100401.44;31787926;27;20492;-74
2024/03/14 14:56:13;;;;;;;18.33;9.00;;;;;;;8.76;100.00;100407.66;31781432;28;20043;-74
2024/03/14 15:11:19;;;;;;;18.77;9.17;;;;;;;8.72;100.00;100410.41;31785805;28;20057;-76
2024/03/14 15:26:23;;;;;;;14.50;8.83;;;;;;;8.80;100.00;100419.22;31801997;28;20133;-74
2024/03/14 15:41:27;;;;;;;17.97;10.27;;;;;;;8.76;100.00;100434.72;31792608;27;20475;-74
2024/03/14 15:56:33;;;;;;;14.27;9.00;;;;;;;8.39;100.00;100457.75;31827658;27;20043;-76
2024/03/14 16:11:40;;;;;;;20.30;10.20;;;;;;;8.08;100.00;100472.16;31836590;27;20055;-76
2024/03/14 16:26:43;;;;;;;20.37;9.70;;;;;;;7.81;100.00;100474.53;31831305;27;20047;-74
2024/03/14 16:41:49;;;;;;;16.03;9.00;;;;;;;8.05;100.00;100472.94;31820118;27;20053;-74
2024/03/14 16:56:51;;;;;;;19.17;10.63;;;;;;;7.48;100.00;100468.44;31827477;27;20052;-80
2024/03/14 17:11:54;;;;;;;23.97;11.47;;;;;;;7.82;100.00;100476.88;31802034;27;20078;-77
2024/03/14 17:26:56;;;;;;;19.97;10.83;;;;;;;8.34;100.00;100493.34;31798253;27;20122;-75
2024/03/14 17:42:00;;;;;;;17.23;9.33;;;;;;;7.92;100.00;100501.56;31814645;27;20105;-76
2024/03/14 17:57:03;;;;;;;18.20;9.80;;;;;;;8.23;100.00;100499.94;31809119;27;20145;-78
2024/03/14 18:12:05;;;;;;;17.57;9.43;;;;;;;7.72;100.00;100496.59;31795889;27;20057;-75
2024/03/14 18:27:09;;;;;;;19.27;10.07;;;;;;;8.18;100.00;100503.81;31785411;27;20096;-76
2024/03/14 18:42:11;;;;;;;22.47;10.60;;;;;;;8.36;100.00;100504.53;31778993;27;20475;-74
2024/03/14 18:57:13;;;;;;;22.67;12.30;;;;;;;7.39;100.00;100491.59;31779491;28;20163;-73
2024/03/14 19:12:15;;;;;;;25.67;13.60;;;;;;;7.42;100.00;100485.44;31805138;27;20142;-74
2024/03/14 19:27:18;;;;;;;19.57;11.30;;;;;;;8.06;100.00;100501.50;31822150;27;20437;-76
2024/03/14 19:42:20;;;;;;;20.30;10.03;;;;;;;7.41;100.00;100494.69;31806462;27;20055;-74
2024/03/14 19:57:22;;;;;;;16.33;9.50;;;;;;;8.18;100.00;100493.00;31812826;27;20051;-72
2024/03/14 20:12:25;;;;;;;17.17;9.77;;;;;;;8.22;100.00;100499.16;31817557;27;20039;-75
2024/03/14 20:27:27;;;;;;;20.13;10.13;;;;;;;8.10;100.00;100502.28;31795328;27;20368;-72
2024/03/14 20:42:33;;;;;;;19.17;9.57;;;;;;;8.25;100.00;100492.97;31810432;27;20052;-73
2024/03/14 20:57:45;;;;;;;21.70;12.63;;;;;;;8.61;100.00;100471.16;31789943;27;20076;-74
2024/03/14 21:12:50;;;;;;;26.00;12.83;;;;;;;8.51;100.00;100462.69;31805580;27;20085;-73
2024/03/14 21:27:57;;;;;;;19.90;11.30;;;;;;;8.62;100.00;100472.72;31792195;27;20078;-73
2024/03/14 21:43:00;;;;;;;23.00;12.97;;;;;;;8.62;100.00;100456.47;31788746;27;20048;-72
2024/03/14 21:58:04;;;;;;;20.60;10.70;;;;;;;8.39;100.00;100441.53;31789043;27;20051;-71
2024/03/14 22:13:06;;;;;;;21.57;10.20;;;;;;;8.37;100.00;100438.44;31768818;27;20059;-71
2024/03/14 22:28:08;;;;;;;22.23;11.10;;;;;;;8.87;100.00;100443.53;31787970;27;20054;-74
2024/03/14 22:43:10;;;;;;;22.50;10.83;;;;;;;8.91;100.00;100457.84;31788987;27;20511;-72
2024/03/14 22:58:13;;;;;;;21.47;11.33;;;;;;;8.76;100.00;100457.16;31788696;27;20050;-72
2024/03/14 23:13:21;;;;;;;22.00;11.10;;;;;;;9.10;100.00;100442.97;31810638;27;20058;-72
2024/03/14 23:28:27;;;;;;;19.17;9.50;;;;;;;9.03;100.00;100443.81;31781558;27;20139;-72
2024/03/14 23:43:29;;;;;;;28.33;11.70;;;;;;;9.04;100.00;100439.94;31782823;28;20070;-71
2024/03/14 23:58:31;;;;;;;20.60;11.70;;;;;;;9.01;100.00;100431.81;31789971;28;20051;-72
